This is the latest recevied weather packets stored in our database for station/object SP9INZ-13. If no packets are shown the sender has not sent any weather packets the latest 1 day(s).
| Time | Temp. | Humidity | Pressure | Rain* | Wind** | Luminosity | Snow |
|---|---|---|---|---|---|---|---|
| 1778106536 | 20° C | 59% | 1006.6 hPa | - | - | - | - |
| 1778099831 | 21.11° C | 55% | 1006.4 hPa | - | - | - | - |
| 1778094082 | 21.67° C | 56% | 1005.6 hPa | - | - | - | - |
| 1778093124 | 21.67° C | 58% | 1005.1 hPa | - | - | - | - |
| 1778091208 | 21.67° C | 59% | 1004.9 hPa | - | - | - | - |
| 1778086418 | 22.78° C | 55% | 1004.8 hPa | - | - | - | - |
| 1778079711 | 25° C | 40% | 1006.4 hPa | - | - | - | - |
| 1778071089 | 25° C | 42% | 1006.6 hPa | - | - | - | - |
| 1778069173 | 25° C | 43% | 1006.7 hPa | - | - | - | - |
| 1778068215 | 24.44° C | 44% | 1006.8 hPa | - | - | - | - |
| 1778066299 | 23.89° C | 44% | 1007 hPa | - | - | - | - |
| 1778064383 | 22.22° C | 48% | 1007.4 hPa | - | - | - | - |
| 1778063425 | 21.67° C | 53% | 1006.9 hPa | - | - | - | - |
| 1778062467 | 21.67° C | 52% | 1006.8 hPa | - | - | - | - |
| 1778061510 | 22.22° C | 50% | 1006.5 hPa | - | - | - | - |
| 1778060551 | 21.67° C | 53% | 1006.4 hPa | - | - | - | - |
| 1778059593 | 21.11° C | 54% | 1006.4 hPa | - | - | - | - |
| 1778058635 | 20.56° C | 55% | 1006.5 hPa | - | - | - | - |
| 1778057677 | 20.56° C | 57% | 1005.9 hPa | - | - | - | - |
| 1778056719 | 20° C | 59% | 1005.9 hPa | - | - | - | - |
| 1778055761 | 19.44° C | 60% | 1006 hPa | - | - | - | - |
| 1778053845 | 18.89° C | 62% | 1005.8 hPa | - | - | - | - |
| 1778052887 | 18.89° C | 62% | 1005.9 hPa | - | - | - | - |
| 1778051929 | 18.33° C | 63% | 1006 hPa | - | - | - | - |
| 1778050013 | 17.78° C | 64% | 1006.3 hPa | - | - | - | - |
* Rain since midnight (hover to see other rain measurements)
** Current wind speed in m/s (hover to see current wind gust speed)